sensor_id;sensor_type;location;lat;lon;timestamp;P1;durP1;ratioP1;P2;durP2;ratioP2
12171;SDS011;6149;52.418;13.668;2022-12-11T00:01:34;15.43;;;10.23;;
12171;SDS011;6149;52.418;13.668;2022-12-11T00:04:01;16.33;;;10.17;;
12171;SDS011;6149;52.418;13.668;2022-12-11T00:06:28;17.00;;;10.10;;
12171;SDS011;6149;52.418;13.668;2022-12-11T00:08:54;15.23;;;9.97;;
12171;SDS011;6149;52.418;13.668;2022-12-11T00:11:21;17.77;;;10.27;;
12171;SDS011;6149;52.418;13.668;2022-12-11T00:13:49;16.70;;;10.73;;
12171;SDS011;6149;52.418;13.668;2022-12-11T00:16:17;17.90;;;10.90;;
12171;SDS011;6149;52.418;13.668;2022-12-11T00:18:45;19.37;;;11.10;;
12171;SDS011;6149;52.418;13.668;2022-12-11T00:21:13;17.73;;;11.47;;
12171;SDS011;6149;52.418;13.668;2022-12-11T00:23:40;19.57;;;11.67;;
12171;SDS011;6149;52.418;13.668;2022-12-11T00:26:09;20.50;;;11.30;;
12171;SDS011;6149;52.418;13.668;2022-12-11T00:28:41;19.00;;;11.13;;
12171;SDS011;6149;52.418;13.668;2022-12-11T00:31:12;19.80;;;12.23;;
12171;SDS011;6149;52.418;13.668;2022-12-11T00:33:43;18.93;;;11.30;;
12171;SDS011;6149;52.418;13.668;2022-12-11T00:36:15;17.93;;;11.10;;
12171;SDS011;6149;52.418;13.668;2022-12-11T00:38:43;19.40;;;11.97;;
12171;SDS011;6149;52.418;13.668;2022-12-11T00:41:13;18.33;;;10.90;;
12171;SDS011;6149;52.418;13.668;2022-12-11T00:43:40;20.50;;;12.27;;
12171;SDS011;6149;52.418;13.668;2022-12-11T00:46:07;23.00;;;13.03;;
12171;SDS011;6149;52.418;13.668;2022-12-11T00:48:34;21.20;;;12.63;;
12171;SDS011;6149;52.418;13.668;2022-12-11T00:51:05;19.80;;;11.30;;
12171;SDS011;6149;52.418;13.668;2022-12-11T00:53:33;22.13;;;12.40;;
12171;SDS011;6149;52.418;13.668;2022-12-11T00:56:07;23.03;;;12.63;;
12171;SDS011;6149;52.418;13.668;2022-12-11T00:58:37;21.57;;;12.27;;
12171;SDS011;6149;52.418;13.668;2022-12-11T01:01:05;21.93;;;11.83;;
12171;SDS011;6149;52.418;13.668;2022-12-11T01:03:38;20.67;;;12.53;;
12171;SDS011;6149;52.418;13.668;2022-12-11T01:06:07;25.07;;;12.67;;
12171;SDS011;6149;52.418;13.668;2022-12-11T01:08:39;19.53;;;11.57;;
12171;SDS011;6149;52.418;13.668;2022-12-11T01:11:07;19.43;;;12.37;;
12171;SDS011;6149;52.418;13.668;2022-12-11T01:13:35;24.97;;;12.20;;
12171;SDS011;6149;52.418;13.668;2022-12-11T01:16:06;23.60;;;13.23;;
12171;SDS011;6149;52.418;13.668;2022-12-11T01:18:34;23.03;;;13.70;;
12171;SDS011;6149;52.418;13.668;2022-12-11T01:21:09;26.33;;;12.70;;
12171;SDS011;6149;52.418;13.668;2022-12-11T01:23:39;22.77;;;12.77;;
12171;SDS011;6149;52.418;13.668;2022-12-11T01:26:06;25.87;;;12.53;;
12171;SDS011;6149;52.418;13.668;2022-12-11T01:28:34;22.10;;;12.07;;
12171;SDS011;6149;52.418;13.668;2022-12-11T01:31:06;22.07;;;12.60;;
12171;SDS011;6149;52.418;13.668;2022-12-11T01:33:34;21.37;;;13.20;;
12171;SDS011;6149;52.418;13.668;2022-12-11T01:36:05;20.37;;;12.27;;
12171;SDS011;6149;52.418;13.668;2022-12-11T01:38:35;21.87;;;11.93;;
12171;SDS011;6149;52.418;13.668;2022-12-11T01:41:03;22.07;;;13.00;;
12171;SDS011;6149;52.418;13.668;2022-12-11T01:43:30;21.43;;;11.93;;
12171;SDS011;6149;52.418;13.668;2022-12-11T01:45:58;21.67;;;13.13;;
12171;SDS011;6149;52.418;13.668;2022-12-11T01:48:26;22.73;;;12.93;;
12171;SDS011;6149;52.418;13.668;2022-12-11T01:50:57;23.97;;;13.30;;
12171;SDS011;6149;52.418;13.668;2022-12-11T01:53:29;25.03;;;13.10;;
12171;SDS011;6149;52.418;13.668;2022-12-11T01:55:59;20.87;;;12.80;;
12171;SDS011;6149;52.418;13.668;2022-12-11T01:58:30;19.80;;;11.17;;
12171;SDS011;6149;52.418;13.668;2022-12-11T02:01:01;18.60;;;11.27;;
12171;SDS011;6149;52.418;13.668;2022-12-11T02:03:30;23.10;;;12.20;;
12171;SDS011;6149;52.418;13.668;2022-12-11T02:06:03;26.57;;;14.67;;
12171;SDS011;6149;52.418;13.668;2022-12-11T02:08:31;26.17;;;14.43;;
12171;SDS011;6149;52.418;13.668;2022-12-11T02:11:00;22.00;;;13.70;;
12171;SDS011;6149;52.418;13.668;2022-12-11T02:13:40;21.93;;;13.40;;
12171;SDS011;6149;52.418;13.668;2022-12-11T02:16:16;27.23;;;14.37;;
12171;SDS011;6149;52.418;13.668;2022-12-11T02:18:52;21.57;;;13.73;;
12171;SDS011;6149;52.418;13.668;2022-12-11T02:21:27;26.63;;;13.53;;
12171;SDS011;6149;52.418;13.668;2022-12-11T02:24:09;22.17;;;13.80;;
12171;SDS011;6149;52.418;13.668;2022-12-11T02:29:49;26.00;;;14.53;;
12171;SDS011;6149;52.418;13.668;2022-12-11T02:32:21;27.23;;;14.80;;
12171;SDS011;6149;52.418;13.668;2022-12-11T02:34:54;23.87;;;14.17;;
12171;SDS011;6149;52.418;13.668;2022-12-11T02:37:26;25.53;;;13.67;;
12171;SDS011;6149;52.418;13.668;2022-12-11T02:39:56;24.93;;;13.97;;
12171;SDS011;6149;52.418;13.668;2022-12-11T02:42:26;25.43;;;14.17;;
12171;SDS011;6149;52.418;13.668;2022-12-11T02:44:57;26.07;;;15.07;;
12171;SDS011;6149;52.418;13.668;2022-12-11T02:47:25;28.13;;;14.97;;
12171;SDS011;6149;52.418;13.668;2022-12-11T02:49:57;24.93;;;15.27;;
12171;SDS011;6149;52.418;13.668;2022-12-11T02:52:26;25.57;;;14.77;;
12171;SDS011;6149;52.418;13.668;2022-12-11T02:54:56;28.33;;;15.10;;
12171;SDS011;6149;52.418;13.668;2022-12-11T02:57:26;28.43;;;15.43;;
12171;SDS011;6149;52.418;13.668;2022-12-11T02:59:59;26.07;;;15.30;;
12171;SDS011;6149;52.418;13.668;2022-12-11T03:02:27;27.43;;;14.40;;
12171;SDS011;6149;52.418;13.668;2022-12-11T03:04:55;28.33;;;15.87;;
12171;SDS011;6149;52.418;13.668;2022-12-11T03:07:24;30.87;;;14.93;;
12171;SDS011;6149;52.418;13.668;2022-12-11T03:09:58;27.87;;;15.70;;
12171;SDS011;6149;52.418;13.668;2022-12-11T03:12:26;24.23;;;14.87;;
12171;SDS011;6149;52.418;13.668;2022-12-11T03:14:55;27.37;;;14.73;;
12171;SDS011;6149;52.418;13.668;2022-12-11T03:17:27;26.57;;;14.57;;
12171;SDS011;6149;52.418;13.668;2022-12-11T03:19:59;28.50;;;15.33;;
12171;SDS011;6149;52.418;13.668;2022-12-11T03:22:38;23.23;;;14.77;;
12171;SDS011;6149;52.418;13.668;2022-12-11T03:25:11;32.00;;;15.30;;
12171;SDS011;6149;52.418;13.668;2022-12-11T03:27:47;29.37;;;15.10;;
12171;SDS011;6149;52.418;13.668;2022-12-11T03:30:24;25.90;;;14.93;;
12171;SDS011;6149;52.418;13.668;2022-12-11T03:32:55;26.23;;;14.43;;
12171;SDS011;6149;52.418;13.668;2022-12-11T03:35:30;24.13;;;14.40;;
12171;SDS011;6149;52.418;13.668;2022-12-11T03:38:04;27.43;;;15.37;;
12171;SDS011;6149;52.418;13.668;2022-12-11T03:40:34;31.00;;;15.80;;
12171;SDS011;6149;52.418;13.668;2022-12-11T03:43:05;29.63;;;15.30;;
12171;SDS011;6149;52.418;13.668;2022-12-11T03:45:35;26.10;;;14.70;;
12171;SDS011;6149;52.418;13.668;2022-12-11T03:48:05;26.77;;;14.70;;
12171;SDS011;6149;52.418;13.668;2022-12-11T03:50:35;26.30;;;14.20;;
12171;SDS011;6149;52.418;13.668;2022-12-11T03:53:03;27.67;;;14.87;;
12171;SDS011;6149;52.418;13.668;2022-12-11T03:55:31;27.27;;;15.13;;
12171;SDS011;6149;52.418;13.668;2022-12-11T03:57:58;28.93;;;15.47;;
12171;SDS011;6149;52.418;13.668;2022-12-11T04:00:25;25.80;;;15.50;;
12171;SDS011;6149;52.418;13.668;2022-12-11T04:02:53;26.13;;;15.43;;
12171;SDS011;6149;52.418;13.668;2022-12-11T04:05:39;27.10;;;15.17;;
12171;SDS011;6149;52.418;13.668;2022-12-11T04:08:06;28.03;;;15.47;;
12171;SDS011;6149;52.418;13.668;2022-12-11T04:10:33;28.13;;;14.90;;
12171;SDS011;6149;52.418;13.668;2022-12-11T04:13:00;25.07;;;14.43;;
12171;SDS011;6149;52.418;13.668;2022-12-11T04:15:30;26.77;;;14.27;;
12171;SDS011;6149;52.418;13.668;2022-12-11T04:17:59;22.27;;;13.87;;
12171;SDS011;6149;52.418;13.668;2022-12-11T04:20:43;26.70;;;14.80;;
12171;SDS011;6149;52.418;13.668;2022-12-11T04:23:28;22.97;;;13.90;;
12171;SDS011;6149;52.418;13.668;2022-12-11T04:26:13;25.27;;;15.50;;
12171;SDS011;6149;52.418;13.668;2022-12-11T04:28:43;23.37;;;14.07;;
12171;SDS011;6149;52.418;13.668;2022-12-11T04:31:13;28.40;;;13.57;;
12171;SDS011;6149;52.418;13.668;2022-12-11T04:33:45;25.23;;;14.47;;
12171;SDS011;6149;52.418;13.668;2022-12-11T04:36:12;28.73;;;14.47;;
12171;SDS011;6149;52.418;13.668;2022-12-11T04:38:40;25.63;;;14.97;;
12171;SDS011;6149;52.418;13.668;2022-12-11T04:41:07;25.10;;;14.33;;
12171;SDS011;6149;52.418;13.668;2022-12-11T04:43:38;30.27;;;15.03;;
12171;SDS011;6149;52.418;13.668;2022-12-11T04:46:05;27.20;;;14.60;;
12171;SDS011;6149;52.418;13.668;2022-12-11T04:48:34;28.70;;;15.00;;
12171;SDS011;6149;52.418;13.668;2022-12-11T04:51:04;25.43;;;14.23;;
12171;SDS011;6149;52.418;13.668;2022-12-11T04:53:32;30.37;;;14.73;;
12171;SDS011;6149;52.418;13.668;2022-12-11T04:56:03;25.17;;;14.67;;
12171;SDS011;6149;52.418;13.668;2022-12-11T04:58:30;30.23;;;15.47;;
12171;SDS011;6149;52.418;13.668;2022-12-11T05:00:59;25.67;;;14.77;;
12171;SDS011;6149;52.418;13.668;2022-12-11T05:03:31;27.67;;;14.63;;
12171;SDS011;6149;52.418;13.668;2022-12-11T05:06:01;26.63;;;13.43;;
12171;SDS011;6149;52.418;13.668;2022-12-11T05:08:32;24.13;;;14.67;;
12171;SDS011;6149;52.418;13.668;2022-12-11T05:11:02;24.47;;;13.70;;
12171;SDS011;6149;52.418;13.668;2022-12-11T05:13:31;26.47;;;14.50;;
12171;SDS011;6149;52.418;13.668;2022-12-11T05:15:58;25.87;;;14.43;;
12171;SDS011;6149;52.418;13.668;2022-12-11T05:18:25;25.23;;;14.10;;
12171;SDS011;6149;52.418;13.668;2022-12-11T05:20:57;25.03;;;15.03;;
12171;SDS011;6149;52.418;13.668;2022-12-11T05:23:27;25.60;;;15.80;;
12171;SDS011;6149;52.418;13.668;2022-12-11T05:25:56;24.57;;;14.63;;
12171;SDS011;6149;52.418;13.668;2022-12-11T05:28:27;23.00;;;13.80;;
12171;SDS011;6149;52.418;13.668;2022-12-11T05:30:55;26.73;;;14.70;;
12171;SDS011;6149;52.418;13.668;2022-12-11T05:33:23;27.03;;;14.27;;
12171;SDS011;6149;52.418;13.668;2022-12-11T05:35:52;26.57;;;13.67;;
12171;SDS011;6149;52.418;13.668;2022-12-11T05:38:20;26.13;;;14.83;;
12171;SDS011;6149;52.418;13.668;2022-12-11T05:41:00;23.40;;;13.60;;
12171;SDS011;6149;52.418;13.668;2022-12-11T05:43:33;25.20;;;14.67;;
12171;SDS011;6149;52.418;13.668;2022-12-11T05:46:04;23.77;;;13.40;;
12171;SDS011;6149;52.418;13.668;2022-12-11T05:48:32;28.70;;;14.20;;
12171;SDS011;6149;52.418;13.668;2022-12-11T05:50:59;23.13;;;14.07;;
12171;SDS011;6149;52.418;13.668;2022-12-11T05:53:28;23.33;;;12.77;;
12171;SDS011;6149;52.418;13.668;2022-12-11T05:56:04;25.37;;;12.87;;
12171;SDS011;6149;52.418;13.668;2022-12-11T05:58:33;22.23;;;13.40;;
12171;SDS011;6149;52.418;13.668;2022-12-11T06:01:00;20.47;;;12.60;;
12171;SDS011;6149;52.418;13.668;2022-12-11T06:03:32;23.10;;;12.20;;
12171;SDS011;6149;52.418;13.668;2022-12-11T06:06:00;22.40;;;12.70;;
12171;SDS011;6149;52.418;13.668;2022-12-11T06:08:26;24.33;;;13.13;;
12171;SDS011;6149;52.418;13.668;2022-12-11T06:10:53;24.80;;;13.07;;
12171;SDS011;6149;52.418;13.668;2022-12-11T06:13:24;22.40;;;13.10;;
12171;SDS011;6149;52.418;13.668;2022-12-11T06:15:51;21.70;;;12.93;;
12171;SDS011;6149;52.418;13.668;2022-12-11T06:18:18;22.37;;;13.70;;
12171;SDS011;6149;52.418;13.668;2022-12-11T06:20:45;24.17;;;13.70;;
12171;SDS011;6149;52.418;13.668;2022-12-11T06:23:12;27.20;;;13.70;;
12171;SDS011;6149;52.418;13.668;2022-12-11T06:25:39;20.83;;;12.57;;
12171;SDS011;6149;52.418;13.668;2022-12-11T06:28:07;26.77;;;12.80;;
12171;SDS011;6149;52.418;13.668;2022-12-11T06:30:35;23.77;;;13.00;;
12171;SDS011;6149;52.418;13.668;2022-12-11T06:33:03;23.87;;;13.73;;
12171;SDS011;6149;52.418;13.668;2022-12-11T06:35:34;23.53;;;13.27;;
12171;SDS011;6149;52.418;13.668;2022-12-11T06:38:00;22.60;;;12.63;;
12171;SDS011;6149;52.418;13.668;2022-12-11T06:40:29;21.90;;;13.03;;
12171;SDS011;6149;52.418;13.668;2022-12-11T06:42:55;24.87;;;14.17;;
12171;SDS011;6149;52.418;13.668;2022-12-11T06:45:22;24.30;;;16.50;;
12171;SDS011;6149;52.418;13.668;2022-12-11T06:47:50;20.57;;;12.13;;
12171;SDS011;6149;52.418;13.668;2022-12-11T06:50:17;24.73;;;14.17;;
12171;SDS011;6149;52.418;13.668;2022-12-11T06:52:43;19.83;;;11.57;;
12171;SDS011;6149;52.418;13.668;2022-12-11T06:55:11;22.47;;;13.00;;
12171;SDS011;6149;52.418;13.668;2022-12-11T06:57:38;19.00;;;14.60;;
12171;SDS011;6149;52.418;13.668;2022-12-11T07:00:05;20.57;;;11.47;;
12171;SDS011;6149;52.418;13.668;2022-12-11T07:02:33;18.00;;;11.20;;
12171;SDS011;6149;52.418;13.668;2022-12-11T07:05:02;19.07;;;12.20;;
12171;SDS011;6149;52.418;13.668;2022-12-11T07:07:30;18.60;;;11.10;;
12171;SDS011;6149;52.418;13.668;2022-12-11T07:09:56;18.70;;;11.83;;
12171;SDS011;6149;52.418;13.668;2022-12-11T07:12:24;16.30;;;10.60;;
12171;SDS011;6149;52.418;13.668;2022-12-11T07:14:52;20.17;;;11.67;;
12171;SDS011;6149;52.418;13.668;2022-12-11T07:17:21;20.13;;;11.70;;
12171;SDS011;6149;52.418;13.668;2022-12-11T07:19:47;15.83;;;10.67;;
12171;SDS011;6149;52.418;13.668;2022-12-11T07:22:18;19.47;;;11.07;;
12171;SDS011;6149;52.418;13.668;2022-12-11T07:24:45;17.43;;;10.73;;
12171;SDS011;6149;52.418;13.668;2022-12-11T07:27:12;18.37;;;11.13;;
12171;SDS011;6149;52.418;13.668;2022-12-11T07:29:40;15.80;;;11.07;;
12171;SDS011;6149;52.418;13.668;2022-12-11T07:32:06;19.20;;;11.50;;
12171;SDS011;6149;52.418;13.668;2022-12-11T07:34:33;21.23;;;11.90;;
12171;SDS011;6149;52.418;13.668;2022-12-11T07:37:00;20.23;;;10.90;;
12171;SDS011;6149;52.418;13.668;2022-12-11T07:39:33;22.53;;;11.40;;
12171;SDS011;6149;52.418;13.668;2022-12-11T07:42:04;17.50;;;10.73;;
12171;SDS011;6149;52.418;13.668;2022-12-11T07:44:31;14.93;;;10.73;;
12171;SDS011;6149;52.418;13.668;2022-12-11T07:46:58;16.63;;;10.73;;
12171;SDS011;6149;52.418;13.668;2022-12-11T07:49:25;18.83;;;10.77;;
12171;SDS011;6149;52.418;13.668;2022-12-11T07:51:55;17.97;;;10.47;;
12171;SDS011;6149;52.418;13.668;2022-12-11T07:54:21;19.30;;;11.43;;
12171;SDS011;6149;52.418;13.668;2022-12-11T07:56:51;16.10;;;9.73;;
12171;SDS011;6149;52.418;13.668;2022-12-11T07:59:18;16.77;;;10.70;;
12171;SDS011;6149;52.418;13.668;2022-12-11T08:01:45;18.83;;;10.10;;
12171;SDS011;6149;52.418;13.668;2022-12-11T08:04:11;17.40;;;10.50;;
12171;SDS011;6149;52.418;13.668;2022-12-11T08:06:41;17.30;;;10.50;;
12171;SDS011;6149;52.418;13.668;2022-12-11T08:09:18;16.17;;;10.03;;
12171;SDS011;6149;52.418;13.668;2022-12-11T08:11:48;17.47;;;10.90;;
12171;SDS011;6149;52.418;13.668;2022-12-11T08:14:19;19.30;;;11.07;;
12171;SDS011;6149;52.418;13.668;2022-12-11T08:16:46;16.17;;;10.30;;
12171;SDS011;6149;52.418;13.668;2022-12-11T08:19:13;16.53;;;10.20;;
12171;SDS011;6149;52.418;13.668;2022-12-11T08:21:41;19.67;;;11.27;;
12171;SDS011;6149;52.418;13.668;2022-12-11T08:24:09;18.00;;;10.57;;
12171;SDS011;6149;52.418;13.668;2022-12-11T08:26:36;16.97;;;9.93;;
12171;SDS011;6149;52.418;13.668;2022-12-11T08:29:03;15.80;;;10.63;;
12171;SDS011;6149;52.418;13.668;2022-12-11T08:31:32;18.23;;;10.63;;
12171;SDS011;6149;52.418;13.668;2022-12-11T08:33:59;18.17;;;11.40;;
12171;SDS011;6149;52.418;13.668;2022-12-11T08:36:26;19.20;;;10.23;;
12171;SDS011;6149;52.418;13.668;2022-12-11T08:38:53;20.00;;;11.13;;
12171;SDS011;6149;52.418;13.668;2022-12-11T08:41:22;18.87;;;10.67;;
12171;SDS011;6149;52.418;13.668;2022-12-11T08:43:52;18.90;;;10.87;;
12171;SDS011;6149;52.418;13.668;2022-12-11T08:46:22;19.63;;;10.67;;
12171;SDS011;6149;52.418;13.668;2022-12-11T08:48:52;18.30;;;11.07;;
12171;SDS011;6149;52.418;13.668;2022-12-11T08:51:21;19.93;;;10.97;;
12171;SDS011;6149;52.418;13.668;2022-12-11T08:53:53;19.67;;;11.17;;
12171;SDS011;6149;52.418;13.668;2022-12-11T08:56:21;20.43;;;11.70;;
12171;SDS011;6149;52.418;13.668;2022-12-11T08:58:48;19.27;;;11.33;;
12171;SDS011;6149;52.418;13.668;2022-12-11T09:01:18;20.40;;;11.73;;
12171;SDS011;6149;52.418;13.668;2022-12-11T09:03:48;21.10;;;12.27;;
12171;SDS011;6149;52.418;13.668;2022-12-11T09:06:20;23.20;;;11.80;;
12171;SDS011;6149;52.418;13.668;2022-12-11T09:08:49;20.17;;;11.97;;
12171;SDS011;6149;52.418;13.668;2022-12-11T09:11:18;20.07;;;11.70;;
12171;SDS011;6149;52.418;13.668;2022-12-11T09:13:49;20.67;;;11.40;;
12171;SDS011;6149;52.418;13.668;2022-12-11T09:16:18;20.03;;;12.00;;
12171;SDS011;6149;52.418;13.668;2022-12-11T09:18:49;19.13;;;11.93;;
12171;SDS011;6149;52.418;13.668;2022-12-11T09:21:20;17.67;;;11.00;;
12171;SDS011;6149;52.418;13.668;2022-12-11T09:23:48;19.37;;;12.27;;
12171;SDS011;6149;52.418;13.668;2022-12-11T09:26:20;19.73;;;11.50;;
12171;SDS011;6149;52.418;13.668;2022-12-11T09:28:48;17.47;;;10.60;;
12171;SDS011;6149;52.418;13.668;2022-12-11T09:31:18;16.63;;;10.77;;
12171;SDS011;6149;52.418;13.668;2022-12-11T09:33:47;17.17;;;10.43;;
12171;SDS011;6149;52.418;13.668;2022-12-11T09:36:15;18.90;;;11.73;;
12171;SDS011;6149;52.418;13.668;2022-12-11T09:38:45;17.53;;;10.93;;
12171;SDS011;6149;52.418;13.668;2022-12-11T09:41:20;20.93;;;12.10;;
12171;SDS011;6149;52.418;13.668;2022-12-11T09:43:58;18.67;;;11.60;;
12171;SDS011;6149;52.418;13.668;2022-12-11T09:46:39;17.30;;;11.00;;
12171;SDS011;6149;52.418;13.668;2022-12-11T09:49:10;17.50;;;10.80;;
12171;SDS011;6149;52.418;13.668;2022-12-11T09:51:46;18.90;;;11.60;;
12171;SDS011;6149;52.418;13.668;2022-12-11T09:54:20;16.80;;;10.23;;
12171;SDS011;6149;52.418;13.668;2022-12-11T09:56:48;17.33;;;10.60;;
12171;SDS011;6149;52.418;13.668;2022-12-11T09:59:23;18.43;;;10.30;;
12171;SDS011;6149;52.418;13.668;2022-12-11T10:01:59;18.53;;;10.47;;
12171;SDS011;6149;52.418;13.668;2022-12-11T10:04:48;16.80;;;11.00;;
12171;SDS011;6149;52.418;13.668;2022-12-11T10:07:29;18.00;;;10.30;;
12171;SDS011;6149;52.418;13.668;2022-12-11T10:10:09;19.77;;;11.23;;
12171;SDS011;6149;52.418;13.668;2022-12-11T10:12:51;20.13;;;10.90;;
12171;SDS011;6149;52.418;13.668;2022-12-11T10:15:33;16.33;;;9.80;;
12171;SDS011;6149;52.418;13.668;2022-12-11T10:18:08;18.03;;;10.83;;
12171;SDS011;6149;52.418;13.668;2022-12-11T10:20:39;17.90;;;10.07;;
12171;SDS011;6149;52.418;13.668;2022-12-11T10:23:08;18.57;;;10.93;;
12171;SDS011;6149;52.418;13.668;2022-12-11T10:25:43;18.33;;;11.03;;
12171;SDS011;6149;52.418;13.668;2022-12-11T10:28:16;17.93;;;10.37;;
12171;SDS011;6149;52.418;13.668;2022-12-11T10:30:48;17.27;;;10.57;;
12171;SDS011;6149;52.418;13.668;2022-12-11T10:33:26;17.17;;;10.13;;
12171;SDS011;6149;52.418;13.668;2022-12-11T10:36:03;17.97;;;10.10;;
12171;SDS011;6149;52.418;13.668;2022-12-11T10:38:33;15.73;;;10.40;;
12171;SDS011;6149;52.418;13.668;2022-12-11T10:41:10;17.17;;;10.17;;
12171;SDS011;6149;52.418;13.668;2022-12-11T10:43:40;16.27;;;10.97;;
12171;SDS011;6149;52.418;13.668;2022-12-11T10:46:13;16.00;;;11.00;;
12171;SDS011;6149;52.418;13.668;2022-12-11T10:48:46;17.93;;;10.97;;
12171;SDS011;6149;52.418;13.668;2022-12-11T10:51:14;15.10;;;9.83;;
12171;SDS011;6149;52.418;13.668;2022-12-11T10:53:41;17.20;;;10.13;;
12171;SDS011;6149;52.418;13.668;2022-12-11T10:56:24;18.90;;;10.87;;
12171;SDS011;6149;52.418;13.668;2022-12-11T10:58:52;16.87;;;10.10;;
12171;SDS011;6149;52.418;13.668;2022-12-11T11:01:22;14.77;;;9.90;;
12171;SDS011;6149;52.418;13.668;2022-12-11T11:03:56;16.17;;;10.10;;
12171;SDS011;6149;52.418;13.668;2022-12-11T11:06:28;18.90;;;10.60;;
12171;SDS011;6149;52.418;13.668;2022-12-11T11:08:55;15.70;;;10.03;;
12171;SDS011;6149;52.418;13.668;2022-12-11T11:11:28;17.03;;;9.93;;
12171;SDS011;6149;52.418;13.668;2022-12-11T11:14:04;15.77;;;9.70;;
12171;SDS011;6149;52.418;13.668;2022-12-11T11:16:37;18.70;;;10.43;;
12171;SDS011;6149;52.418;13.668;2022-12-11T11:19:13;15.20;;;9.70;;
12171;SDS011;6149;52.418;13.668;2022-12-11T11:21:46;18.17;;;10.20;;
12171;SDS011;6149;52.418;13.668;2022-12-11T11:26:59;15.63;;;10.60;;
12171;SDS011;6149;52.418;13.668;2022-12-11T11:29:30;17.17;;;10.10;;
12171;SDS011;6149;52.418;13.668;2022-12-11T11:32:13;17.53;;;10.50;;
12171;SDS011;6149;52.418;13.668;2022-12-11T11:34:44;13.90;;;10.40;;
12171;SDS011;6149;52.418;13.668;2022-12-11T11:37:21;16.77;;;10.20;;
12171;SDS011;6149;52.418;13.668;2022-12-11T11:39:58;16.47;;;10.53;;
12171;SDS011;6149;52.418;13.668;2022-12-11T11:42:39;16.87;;;10.60;;
12171;SDS011;6149;52.418;13.668;2022-12-11T11:45:13;18.53;;;10.40;;
12171;SDS011;6149;52.418;13.668;2022-12-11T11:47:50;17.80;;;10.70;;
12171;SDS011;6149;52.418;13.668;2022-12-11T11:50:26;17.97;;;11.20;;
12171;SDS011;6149;52.418;13.668;2022-12-11T11:53:01;18.13;;;11.13;;
12171;SDS011;6149;52.418;13.668;2022-12-11T11:55:37;19.40;;;10.73;;
12171;SDS011;6149;52.418;13.668;2022-12-11T11:58:16;17.13;;;10.20;;
12171;SDS011;6149;52.418;13.668;2022-12-11T12:00:48;17.47;;;10.77;;
12171;SDS011;6149;52.418;13.668;2022-12-11T12:03:18;16.73;;;10.47;;
12171;SDS011;6149;52.418;13.668;2022-12-11T12:05:48;16.83;;;11.10;;
12171;SDS011;6149;52.418;13.668;2022-12-11T12:08:24;18.07;;;10.17;;
12171;SDS011;6149;52.418;13.668;2022-12-11T12:11:04;15.67;;;10.40;;
12171;SDS011;6149;52.418;13.668;2022-12-11T12:13:40;16.43;;;10.13;;
12171;SDS011;6149;52.418;13.668;2022-12-11T12:16:18;19.00;;;11.53;;
12171;SDS011;6149;52.418;13.668;2022-12-11T12:18:55;17.17;;;10.67;;
12171;SDS011;6149;52.418;13.668;2022-12-11T12:21:36;17.10;;;10.50;;
12171;SDS011;6149;52.418;13.668;2022-12-11T12:24:10;16.73;;;9.80;;
12171;SDS011;6149;52.418;13.668;2022-12-11T12:26:59;16.10;;;10.53;;
12171;SDS011;6149;52.418;13.668;2022-12-11T12:29:47;15.47;;;10.53;;
12171;SDS011;6149;52.418;13.668;2022-12-11T12:32:27;16.40;;;10.80;;
12171;SDS011;6149;52.418;13.668;2022-12-11T12:35:08;16.47;;;10.13;;
12171;SDS011;6149;52.418;13.668;2022-12-11T12:37:55;18.00;;;11.03;;
12171;SDS011;6149;52.418;13.668;2022-12-11T12:40:33;16.27;;;10.20;;
12171;SDS011;6149;52.418;13.668;2022-12-11T12:43:25;17.70;;;10.50;;
12171;SDS011;6149;52.418;13.668;2022-12-11T12:46:28;16.37;;;10.50;;
12171;SDS011;6149;52.418;13.668;2022-12-11T12:49:09;18.53;;;11.27;;
12171;SDS011;6149;52.418;13.668;2022-12-11T12:51:45;19.30;;;11.20;;
12171;SDS011;6149;52.418;13.668;2022-12-11T12:54:13;20.00;;;11.43;;
12171;SDS011;6149;52.418;13.668;2022-12-11T12:56:45;16.30;;;10.83;;
12171;SDS011;6149;52.418;13.668;2022-12-11T12:59:19;18.97;;;10.57;;
12171;SDS011;6149;52.418;13.668;2022-12-11T13:01:52;18.80;;;11.43;;
12171;SDS011;6149;52.418;13.668;2022-12-11T13:04:34;15.57;;;10.30;;
12171;SDS011;6149;52.418;13.668;2022-12-11T13:10:00;17.60;;;10.07;;
12171;SDS011;6149;52.418;13.668;2022-12-11T13:12:33;16.97;;;11.47;;
12171;SDS011;6149;52.418;13.668;2022-12-11T13:15:25;18.10;;;11.13;;
12171;SDS011;6149;52.418;13.668;2022-12-11T13:18:06;17.73;;;10.67;;
12171;SDS011;6149;52.418;13.668;2022-12-11T13:23:54;17.30;;;10.47;;
12171;SDS011;6149;52.418;13.668;2022-12-11T13:26:44;16.83;;;11.00;;
12171;SDS011;6149;52.418;13.668;2022-12-11T13:29:30;17.30;;;10.67;;
12171;SDS011;6149;52.418;13.668;2022-12-11T13:32:03;16.03;;;10.30;;
12171;SDS011;6149;52.418;13.668;2022-12-11T13:34:51;20.57;;;11.70;;
12171;SDS011;6149;52.418;13.668;2022-12-11T13:37:26;17.90;;;11.67;;
12171;SDS011;6149;52.418;13.668;2022-12-11T13:42:33;20.03;;;11.53;;
12171;SDS011;6149;52.418;13.668;2022-12-11T13:45:05;18.37;;;11.83;;
12171;SDS011;6149;52.418;13.668;2022-12-11T13:47:44;20.97;;;11.40;;
12171;SDS011;6149;52.418;13.668;2022-12-11T13:50:15;19.37;;;11.87;;
12171;SDS011;6149;52.418;13.668;2022-12-11T13:52:51;18.30;;;11.17;;
12171;SDS011;6149;52.418;13.668;2022-12-11T13:55:21;20.97;;;11.67;;
12171;SDS011;6149;52.418;13.668;2022-12-11T13:57:50;18.50;;;11.30;;
12171;SDS011;6149;52.418;13.668;2022-12-11T14:00:21;19.10;;;11.60;;
12171;SDS011;6149;52.418;13.668;2022-12-11T14:02:52;18.37;;;11.57;;
12171;SDS011;6149;52.418;13.668;2022-12-11T14:05:28;19.83;;;11.43;;
12171;SDS011;6149;52.418;13.668;2022-12-11T14:07:59;17.93;;;11.40;;
12171;SDS011;6149;52.418;13.668;2022-12-11T14:10:36;17.03;;;11.23;;
12171;SDS011;6149;52.418;13.668;2022-12-11T14:13:09;18.90;;;10.87;;
12171;SDS011;6149;52.418;13.668;2022-12-11T14:15:44;20.00;;;11.53;;
12171;SDS011;6149;52.418;13.668;2022-12-11T14:18:17;19.43;;;11.73;;
12171;SDS011;6149;52.418;13.668;2022-12-11T14:21:05;18.50;;;11.73;;
12171;SDS011;6149;52.418;13.668;2022-12-11T14:23:32;18.40;;;11.73;;
12171;SDS011;6149;52.418;13.668;2022-12-11T14:26:03;18.60;;;11.70;;
12171;SDS011;6149;52.418;13.668;2022-12-11T14:28:44;16.37;;;10.93;;
12171;SDS011;6149;52.418;13.668;2022-12-11T14:31:12;18.40;;;11.60;;
12171;SDS011;6149;52.418;13.668;2022-12-11T14:33:44;18.37;;;11.80;;
12171;SDS011;6149;52.418;13.668;2022-12-11T14:36:18;20.70;;;11.57;;
12171;SDS011;6149;52.418;13.668;2022-12-11T14:38:48;17.43;;;11.00;;
12171;SDS011;6149;52.418;13.668;2022-12-11T14:41:26;17.07;;;11.37;;
12171;SDS011;6149;52.418;13.668;2022-12-11T14:44:01;18.23;;;11.33;;
12171;SDS011;6149;52.418;13.668;2022-12-11T14:46:31;17.43;;;11.20;;
12171;SDS011;6149;52.418;13.668;2022-12-11T14:49:05;17.07;;;11.03;;
12171;SDS011;6149;52.418;13.668;2022-12-11T14:51:44;20.90;;;12.03;;
12171;SDS011;6149;52.418;13.668;2022-12-11T14:54:14;29.63;;;19.10;;
12171;SDS011;6149;52.418;13.668;2022-12-11T14:56:54;20.27;;;11.93;;
12171;SDS011;6149;52.418;13.668;2022-12-11T14:59:22;21.50;;;11.67;;
12171;SDS011;6149;52.418;13.668;2022-12-11T15:01:59;20.73;;;12.60;;